Aughwick, Pennsylvania
Current Conditions -  °F | °C
As of 10:53 PM on Saturday 22 Nov 2014 (Local Time) from KAOO Reporting Station
Few Clouds Few Clouds  
Wind Chill: 35°   Ceiling: Unl
Heat Index: 39°   Visibility: 10mi
Dew Point: 26°   Wind: 6mph
Humidity: 60%   Direction: 230°SW
Pressure: 30.14"   Gusts: NA
Location:  40.4281°N, 77.8329°W
Report Text: KAOO 230353Z AUTO 23005KT 10SM FEW100 04/M03 A3014 RMK AO2 SLP218 T00391033
Loading
Personal Weather Stations






























Interactive Weather Map New forecast layout! Learn more

10-Day Weather Forecast

Advertisements
Track Severe Weather on mobile